Time;durP1;ratioP1;P1;durP2;ratioP2;P2;SDS_P1;SDS_P2;PMS_P1;PMS_P2;Temp;Humidity;BMP_temperature;BMP_pressure;BME280_temperature;BME280_humidity;BME280_pressure;Samples;Min_cycle;Max_cycle;Signal;HPM_P1;HPM_P2
2020/12/15 00:01:23;;;;;;;2.73;1.70;;;10.20;99.90;;;;;;5033797;28;20445;-86
2020/12/15 00:07:20;;;;;;;3.60;1.40;;;10.20;99.90;;;;;;5026018;28;20457;-86
2020/12/15 00:09:46;;;;;;;2.90;1.40;;;10.20;99.90;;;;;;5033237;28;20476;-86
2020/12/15 00:12:12;;;;;;;5.23;1.50;;;10.20;99.90;;;;;;5032877;28;20445;-86
2020/12/15 00:14:38;;;;;;;2.60;1.53;;;10.30;99.90;;;;;;5033360;28;20441;-85
2020/12/15 00:17:06;;;;;;;3.33;1.70;;;10.30;99.90;;;;;;5033909;28;20488;-85
2020/12/15 00:19:32;;;;;;;2.93;1.60;;;10.30;99.90;;;;;;5032578;28;20455;-85
2020/12/15 00:21:58;;;;;;;2.73;1.57;;;10.20;99.90;;;;;;5032293;28;20445;-88
2020/12/15 00:24:25;;;;;;;2.60;1.50;;;10.20;99.90;;;;;;5026054;28;20459;-86
2020/12/15 00:26:59;;;;;;;2.70;1.40;;;10.20;99.90;;;;;;5033145;28;20535;-85
2020/12/15 00:29:26;;;;;;;2.77;1.50;;;10.20;99.90;;;;;;5013588;28;20483;-84
2020/12/15 00:31:52;;;;;;;3.10;1.77;;;10.20;99.90;;;;;;5013991;28;20450;-85
2020/12/15 00:34:19;;;;;;;2.77;1.60;;;10.20;99.90;;;;;;5016654;28;20454;-85
2020/12/15 00:36:58;;;;;;;2.93;1.73;;;10.20;99.90;;;;;;5017673;28;20485;-85
2020/12/15 00:39:32;;;;;;;4.00;1.80;;;10.10;99.90;;;;;;5017921;28;20445;-85
2020/12/15 00:42:01;;;;;;;5.07;2.00;;;10.10;99.90;;;;;;5033302;28;20447;-86
2020/12/15 00:44:27;;;;;;;2.30;1.40;;;10.00;99.90;;;;;;5036983;28;20951;-85
2020/12/15 00:46:54;;;;;;;2.53;1.43;;;10.10;99.90;;;;;;5037796;28;20460;-86
2020/12/15 00:49:21;;;;;;;2.53;1.47;;;10.10;99.90;;;;;;5037572;28;20522;-83
2020/12/15 00:51:48;;;;;;;3.50;2.10;;;10.10;99.90;;;;;;5037467;28;20776;-84
2020/12/15 00:54:14;;;;;;;2.47;1.37;;;10.20;99.90;;;;;;5036471;28;20540;-85
2020/12/15 00:56:41;;;;;;;2.10;1.20;;;10.00;99.90;;;;;;5037089;28;20459;-84
2020/12/15 00:59:10;;;;;;;2.77;1.67;;;10.00;99.90;;;;;;5037696;28;20453;-84
2020/12/15 01:01:37;;;;;;;2.90;1.60;;;10.00;99.90;;;;;;5037684;28;20449;-84
2020/12/15 01:04:03;;;;;;;3.60;2.13;;;9.90;99.90;;;;;;5037583;28;20437;-84
2020/12/15 01:06:31;;;;;;;2.60;1.57;;;9.90;99.90;;;;;;5036898;28;20932;-84
2020/12/15 01:08:57;;;;;;;2.90;1.50;;;9.90;99.90;;;;;;5038204;28;20550;-84
2020/12/15 01:11:27;;;;;;;3.60;1.93;;;9.80;99.90;;;;;;5037240;28;20937;-84
2020/12/15 01:13:54;;;;;;;3.60;1.70;;;9.70;99.90;;;;;;5037042;28;20432;-84
2020/12/15 01:16:20;;;;;;;3.27;1.57;;;9.60;99.90;;;;;;5037237;28;20583;-83
2020/12/15 01:18:46;;;;;;;7.63;2.10;;;9.50;99.90;;;;;;5037222;28;20488;-84
2020/12/15 01:21:13;;;;;;;3.37;1.50;;;9.50;99.90;;;;;;5036933;28;20542;-84
2020/12/15 01:23:40;;;;;;;2.67;1.47;;;9.40;99.90;;;;;;5037886;28;20449;-85
2020/12/15 01:26:07;;;;;;;3.53;1.73;;;9.20;99.90;;;;;;5036904;28;20448;-85
2020/12/15 01:28:34;;;;;;;5.93;2.30;;;9.10;99.90;;;;;;5036490;28;20960;-83
2020/12/15 01:31:00;;;;;;;5.70;1.97;;;9.00;99.90;;;;;;5037300;28;20541;-84
2020/12/15 01:33:27;;;;;;;3.00;2.00;;;8.90;99.90;;;;;;5036376;28;20543;-84
2020/12/15 01:35:54;;;;;;;2.57;1.77;;;8.90;99.90;;;;;;5036660;28;20456;-84
2020/12/15 01:38:21;;;;;;;4.53;1.87;;;8.80;99.90;;;;;;5035910;28;20508;-85
2020/12/15 01:40:50;;;;;;;5.63;1.57;;;8.80;99.90;;;;;;5036944;28;20891;-87
2020/12/15 01:43:16;;;;;;;4.53;2.43;;;8.70;99.90;;;;;;5035245;28;20528;-86
2020/12/15 01:45:43;;;;;;;3.03;2.03;;;8.60;99.90;;;;;;5036595;28;20477;-86
2020/12/15 01:48:10;;;;;;;3.13;2.10;;;8.60;99.90;;;;;;5036414;28;20451;-86
2020/12/15 01:50:36;;;;;;;2.60;1.70;;;8.50;99.90;;;;;;5036573;28;20477;-86
2020/12/15 01:53:07;;;;;;;3.37;2.40;;;8.50;99.90;;;;;;5035717;28;20929;-86
2020/12/15 01:55:34;;;;;;;3.73;2.20;;;8.40;99.90;;;;;;5036007;28;20523;-86
2020/12/15 01:58:02;;;;;;;3.97;2.53;;;8.50;99.90;;;;;;5035528;28;20484;-87
2020/12/15 02:00:29;;;;;;;3.20;2.10;;;8.40;99.90;;;;;;5035462;28;20940;-87
2020/12/15 02:02:56;;;;;;;4.90;2.47;;;8.40;99.90;;;;;;5036339;28;20932;-88
2020/12/15 02:05:22;;;;;;;4.43;1.97;;;8.40;99.90;;;;;;5035660;28;20444;-87
2020/12/15 02:07:49;;;;;;;3.60;1.80;;;8.40;99.90;;;;;;5035862;28;20459;-88
2020/12/15 02:10:15;;;;;;;3.80;2.27;;;8.40;99.90;;;;;;5035383;28;20530;-87
2020/12/15 02:12:42;;;;;;;4.30;2.43;;;8.40;99.90;;;;;;5035691;28;20536;-87
2020/12/15 02:15:09;;;;;;;3.87;2.40;;;8.30;99.90;;;;;;5035811;28;20536;-88
2020/12/15 02:17:36;;;;;;;3.23;2.67;;;8.30;99.90;;;;;;5035445;28;20559;-88
2020/12/15 02:20:05;;;;;;;3.40;1.70;;;8.20;99.90;;;;;;5035321;28;20449;-88
2020/12/15 02:22:32;;;;;;;3.33;2.07;;;8.30;99.90;;;;;;5035075;28;20457;-88
2020/12/15 02:24:58;;;;;;;5.37;2.60;;;8.30;99.90;;;;;;5035774;28;20511;-87
2020/12/15 02:27:25;;;;;;;3.73;2.53;;;8.30;99.90;;;;;;5035245;28;20939;-88
2020/12/15 02:29:51;;;;;;;3.47;2.23;;;8.20;99.90;;;;;;5036016;28;20548;-88
2020/12/15 02:32:17;;;;;;;4.63;2.33;;;8.30;99.90;;;;;;5037249;28;20459;-88
2020/12/15 02:34:44;;;;;;;3.50;2.20;;;8.30;99.90;;;;;;5043269;28;20539;-87
2020/12/15 02:37:13;;;;;;;4.90;2.80;;;8.30;99.90;;;;;;5035335;28;20962;-89
2020/12/15 02:39:40;;;;;;;3.50;2.50;;;8.20;99.90;;;;;;5035786;28;20506;-88
2020/12/15 02:42:07;;;;;;;3.43;2.37;;;8.20;99.90;;;;;;5035452;28;20569;-87
2020/12/15 02:44:33;;;;;;;3.40;2.40;;;8.20;99.90;;;;;;5043108;28;20535;-87
2020/12/15 02:46:59;;;;;;;8.10;2.67;;;8.20;99.90;;;;;;5043797;28;20455;-88
2020/12/15 02:49:26;;;;;;;4.17;2.60;;;8.20;99.90;;;;;;5035718;28;20576;-87
2020/12/15 02:51:52;;;;;;;4.50;2.47;;;8.30;99.90;;;;;;5035587;28;20539;-88
2020/12/15 02:54:19;;;;;;;4.87;3.23;;;8.30;99.90;;;;;;5034220;28;20544;-85
2020/12/15 02:56:46;;;;;;;4.40;2.60;;;8.30;99.90;;;;;;5035583;28;20445;-86
2020/12/15 02:59:15;;;;;;;4.50;3.10;;;8.30;99.90;;;;;;5035421;28;20855;-85
2020/12/15 03:01:43;;;;;;;5.00;2.73;;;8.30;99.90;;;;;;5034800;28;20540;-85
2020/12/15 03:04:11;;;;;;;4.00;2.43;;;8.30;99.90;;;;;;5034826;28;20460;-85
2020/12/15 03:06:37;;;;;;;5.30;3.37;;;8.30;99.90;;;;;;5034265;28;20552;-87
2020/12/15 03:09:06;;;;;;;4.10;2.53;;;8.20;99.90;;;;;;5034874;28;20467;-86
2020/12/15 03:11:32;;;;;;;4.57;2.70;;;8.30;99.90;;;;;;5034351;28;20451;-86
2020/12/15 03:14:01;;;;;;;4.60;3.10;;;8.30;99.90;;;;;;5034685;28;20445;-86
2020/12/15 03:16:27;;;;;;;3.23;2.37;;;8.40;99.90;;;;;;5033766;28;20453;-86
2020/12/15 03:18:54;;;;;;;3.90;2.60;;;8.40;99.90;;;;;;5034516;28;20488;-86
2020/12/15 03:21:21;;;;;;;3.87;2.70;;;8.30;99.90;;;;;;5034184;28;20441;-89
2020/12/15 03:23:47;;;;;;;5.03;2.67;;;8.40;99.90;;;;;;5034521;28;20453;-85
2020/12/15 03:26:14;;;;;;;5.80;3.23;;;8.40;99.90;;;;;;5034705;28;20441;-84
2020/12/15 03:28:40;;;;;;;5.17;2.87;;;8.40;99.90;;;;;;5034316;28;20457;-86
2020/12/15 03:31:07;;;;;;;5.70;3.40;;;8.40;99.90;;;;;;5033558;28;20448;-86
2020/12/15 03:33:33;;;;;;;5.67;2.90;;;8.40;99.90;;;;;;5033562;28;20448;-86
2020/12/15 03:36:00;;;;;;;4.67;2.83;;;8.40;99.90;;;;;;5034281;28;20533;-85
2020/12/15 03:38:26;;;;;;;4.60;3.90;;;8.50;99.90;;;;;;5033791;28;20489;-84
2020/12/15 03:40:53;;;;;;;4.53;3.00;;;8.50;99.90;;;;;;5034199;28;20480;-85
2020/12/15 03:43:19;;;;;;;5.40;3.70;;;8.50;99.90;;;;;;5033852;28;20475;-86
2020/12/15 03:45:46;;;;;;;6.03;2.97;;;8.50;99.90;;;;;;5034064;28;20531;-87
2020/12/15 03:48:14;;;;;;;4.63;3.23;;;8.50;99.90;;;;;;5033120;28;20457;-87
2020/12/15 03:50:40;;;;;;;5.23;3.70;;;8.50;99.90;;;;;;5033703;28;20508;-85
2020/12/15 03:53:06;;;;;;;6.47;4.30;;;8.50;99.90;;;;;;5033907;28;20467;-85
2020/12/15 03:55:33;;;;;;;6.07;4.63;;;8.50;99.90;;;;;;5034125;28;20464;-85
2020/12/15 03:57:59;;;;;;;4.30;3.60;;;8.50;99.90;;;;;;5033765;28;20495;-85
2020/12/15 04:00:25;;;;;;;5.23;4.37;;;8.50;99.90;;;;;;5032422;28;20445;-85
2020/12/15 04:02:52;;;;;;;5.67;3.60;;;8.50;99.90;;;;;;5033855;28;20449;-84
2020/12/15 04:05:19;;;;;;;4.20;3.00;;;8.50;99.90;;;;;;5033136;28;20532;-90
2020/12/15 04:07:45;;;;;;;5.43;4.13;;;8.50;99.90;;;;;;5034052;28;20460;-86
2020/12/15 04:10:12;;;;;;;9.17;4.37;;;8.50;99.90;;;;;;5033794;28;20449;-87
2020/12/15 04:12:38;;;;;;;4.93;4.00;;;8.50;99.90;;;;;;5032982;28;20571;-86
2020/12/15 04:15:05;;;;;;;4.30;3.13;;;8.50;99.90;;;;;;5033823;28;20453;-86
2020/12/15 04:17:31;;;;;;;6.07;3.80;;;8.40;99.90;;;;;;5032923;28;20990;-85
2020/12/15 04:19:58;;;;;;;8.50;3.67;;;8.50;99.90;;;;;;5033703;28;20457;-86
2020/12/15 04:22:25;;;;;;;6.73;4.60;;;8.40;99.90;;;;;;5033094;28;20921;-86
2020/12/15 04:24:51;;;;;;;5.07;4.10;;;8.40;99.90;;;;;;5033477;28;20451;-86
2020/12/15 04:27:18;;;;;;;4.37;3.67;;;8.40;99.90;;;;;;5033608;28;20939;-87
2020/12/15 04:29:45;;;;;;;4.77;3.80;;;8.40;99.90;;;;;;5033203;28;20485;-85
2020/12/15 04:32:11;;;;;;;4.90;4.03;;;8.40;99.90;;;;;;5033669;28;20445;-85
2020/12/15 04:34:37;;;;;;;7.20;3.60;;;8.50;99.90;;;;;;5033049;28;20792;-85
2020/12/15 04:37:04;;;;;;;7.13;4.90;;;8.50;99.90;;;;;;5033258;28;20463;-84
2020/12/15 04:39:31;;;;;;;5.20;4.40;;;8.50;99.90;;;;;;5032833;28;20449;-85
2020/12/15 04:41:57;;;;;;;6.90;4.80;;;8.50;99.90;;;;;;5033412;28;20514;-85
2020/12/15 04:44:25;;;;;;;4.90;4.00;;;8.50;99.90;;;;;;5032900;28;20455;-85
2020/12/15 04:47:02;;;;;;;5.27;4.23;;;8.60;99.90;;;;;;5033606;28;20799;-85
2020/12/15 04:49:38;;;;;;;4.90;4.13;;;8.60;99.90;;;;;;5032961;28;20480;-85
2020/12/15 04:52:06;;;;;;;5.40;4.30;;;8.60;99.90;;;;;;5033563;28;20463;-82
2020/12/15 04:54:34;;;;;;;5.90;4.03;;;8.60;99.90;;;;;;5032287;28;20536;-82
2020/12/15 04:57:02;;;;;;;7.60;4.37;;;8.60;99.90;;;;;;5033068;28;20452;-83
2020/12/15 04:59:30;;;;;;;8.53;4.77;;;8.60;99.90;;;;;;5031951;28;20445;-82
2020/12/15 05:01:58;;;;;;;7.63;4.70;;;8.70;99.90;;;;;;5032151;28;20449;-82
2020/12/15 05:04:25;;;;;;;6.87;4.50;;;8.60;99.90;;;;;;5032796;28;20453;-85
2020/12/15 05:06:55;;;;;;;5.70;4.70;;;8.70;99.90;;;;;;5033589;28;20543;-85
2020/12/15 05:09:29;;;;;;;7.60;4.40;;;8.70;99.90;;;;;;5032985;28;20851;-94
2020/12/15 05:11:56;;;;;;;5.77;5.17;;;8.70;99.90;;;;;;5032949;28;20452;-85
2020/12/15 05:14:23;;;;;;;4.73;4.23;;;8.70;99.90;;;;;;5033052;28;20532;-85
2020/12/15 05:16:49;;;;;;;6.97;4.33;;;8.60;99.90;;;;;;5033561;28;20924;-85
2020/12/15 05:19:15;;;;;;;6.23;4.60;;;8.60;99.90;;;;;;5035471;28;20494;-85
2020/12/15 05:21:53;;;;;;;6.17;4.13;;;8.70;99.90;;;;;;5036526;28;20459;-85
2020/12/15 05:24:27;;;;;;;4.50;3.53;;;8.70;99.90;;;;;;5036685;28;20443;-85
2020/12/15 05:26:54;;;;;;;7.20;4.77;;;8.60;99.90;;;;;;5037275;28;20432;-85
2020/12/15 05:29:22;;;;;;;8.07;4.97;;;8.70;99.90;;;;;;5036570;28;20936;-85
2020/12/15 05:31:49;;;;;;;9.50;6.20;;;8.70;99.90;;;;;;5036694;28;20456;-85
2020/12/15 05:34:24;;;;;;;11.57;7.80;;;8.80;99.90;;;;;;5036145;28;20833;-85
2020/12/15 05:36:53;;;;;;;6.63;5.37;;;8.70;99.90;;;;;;5037263;28;20441;-86
2020/12/15 05:39:19;;;;;;;7.20;5.00;;;8.80;99.90;;;;;;5036756;28;20488;-85
2020/12/15 05:41:48;;;;;;;5.37;4.67;;;8.70;99.90;;;;;;5036074;28;20453;-85
2020/12/15 05:44:25;;;;;;;7.00;4.77;;;8.70;99.90;;;;;;5036683;28;20465;-85
2020/12/15 05:46:52;;;;;;;6.37;4.50;;;8.80;99.90;;;;;;5035978;28;20490;-85
2020/12/15 05:49:27;;;;;;;6.10;4.77;;;8.80;99.90;;;;;;5036705;28;20477;-86
2020/12/15 05:51:54;;;;;;;5.90;5.20;;;8.80;99.90;;;;;;5036996;28;20441;-82
2020/12/15 05:54:20;;;;;;;5.63;4.10;;;8.80;99.90;;;;;;5036409;28;20451;-82
2020/12/15 05:56:47;;;;;;;4.50;3.73;;;8.80;99.90;;;;;;5036151;28;20457;-83
2020/12/15 05:59:21;;;;;;;6.07;5.47;;;8.80;99.90;;;;;;5034084;28;20555;-83
2020/12/15 06:01:49;;;;;;;5.73;5.17;;;8.80;99.90;;;;;;5031784;28;20449;-83
2020/12/15 06:04:16;;;;;;;6.33;5.03;;;8.80;99.90;;;;;;5035941;28;20453;-83
2020/12/15 06:06:43;;;;;;;6.17;4.43;;;8.80;99.90;;;;;;5035245;28;20456;-83
2020/12/15 06:09:11;;;;;;;5.80;4.73;;;8.80;99.90;;;;;;5036121;28;20453;-87
2020/12/15 06:11:40;;;;;;;6.70;4.80;;;8.80;99.90;;;;;;5035513;28;20461;-85
2020/12/15 06:14:07;;;;;;;5.80;4.20;;;8.80;99.90;;;;;;5035052;28;20449;-85
2020/12/15 06:16:34;;;;;;;5.70;4.27;;;8.80;99.90;;;;;;5035394;28;20457;-84
2020/12/15 06:19:02;;;;;;;7.43;4.97;;;8.80;99.90;;;;;;5035805;28;20573;-85
2020/12/15 06:21:29;;;;;;;5.43;4.70;;;8.80;99.90;;;;;;5034700;28;20445;-84
2020/12/15 06:24:00;;;;;;;8.43;4.43;;;8.80;99.90;;;;;;5035765;28;20795;-84
2020/12/15 06:26:28;;;;;;;5.73;5.03;;;8.80;99.90;;;;;;5034959;28;20540;-84
2020/12/15 06:28:59;;;;;;;7.77;6.07;;;8.80;99.90;;;;;;5035345;28;20587;-84
2020/12/15 06:31:25;;;;;;;6.73;5.20;;;8.80;99.90;;;;;;5033958;28;20452;-84
2020/12/15 06:33:56;;;;;;;8.13;5.57;;;8.80;99.90;;;;;;5034697;28;20455;-86
2020/12/15 06:36:28;;;;;;;5.53;4.87;;;8.80;99.90;;;;;;5034769;28;20452;-92
2020/12/15 06:38:55;;;;;;;6.17;4.63;;;8.90;99.90;;;;;;5035567;28;20530;-84
2020/12/15 06:41:25;;;;;;;8.67;5.33;;;9.00;99.90;;;;;;5034924;28;20955;-92
2020/12/15 06:43:52;;;;;;;6.30;4.93;;;9.00;99.90;;;;;;5034806;28;20459;-85
2020/12/15 06:46:27;;;;;;;6.50;4.40;;;9.00;99.90;;;;;;5034944;28;20455;-84
2020/12/15 06:48:55;;;;;;;7.60;5.87;;;9.10;99.90;;;;;;5034800;28;20481;-84
2020/12/15 06:51:30;;;;;;;6.13;5.00;;;9.10;99.90;;;;;;5035286;28;20447;-84
2020/12/15 06:54:04;;;;;;;7.00;5.23;;;9.10;99.90;;;;;;5034979;28;20456;-85
2020/12/15 06:56:31;;;;;;;5.40;4.83;;;9.20;99.90;;;;;;5034383;28;20448;-84
2020/12/15 06:59:02;;;;;;;7.13;5.47;;;9.20;99.90;;;;;;5034636;28;20497;-84
2020/12/15 07:01:29;;;;;;;5.73;4.50;;;9.20;99.90;;;;;;5033772;28;20429;-85
2020/12/15 07:03:57;;;;;;;8.97;5.47;;;9.20;99.90;;;;;;5014598;28;20450;-84
2020/12/15 07:06:24;;;;;;;5.77;5.17;;;9.10;99.90;;;;;;5014556;28;20453;-84
2020/12/15 07:09:06;;;;;;;9.30;6.50;;;9.10;99.90;;;;;;5026650;28;20471;-84
2020/12/15 07:11:32;;;;;;;5.70;5.20;;;9.10;99.90;;;;;;5034649;28;20760;-84
2020/12/15 07:13:59;;;;;;;7.40;6.47;;;9.10;99.90;;;;;;5034548;28;20449;-85
2020/12/15 07:16:27;;;;;;;6.77;6.07;;;9.20;99.90;;;;;;5034502;28;20449;-83
2020/12/15 07:18:53;;;;;;;9.13;6.40;;;9.10;99.90;;;;;;5033021;28;20864;-85
2020/12/15 07:21:21;;;;;;;6.10;5.50;;;9.10;99.90;;;;;;5027795;28;20794;-84
2020/12/15 07:23:47;;;;;;;10.97;7.50;;;9.10;99.90;;;;;;5022783;28;20484;-84
2020/12/15 07:26:16;;;;;;;8.00;6.80;;;9.10;99.90;;;;;;5016119;28;20922;-84
2020/12/15 07:28:44;;;;;;;7.37;6.67;;;9.10;99.90;;;;;;5020391;28;20796;-84
2020/12/15 07:31:11;;;;;;;8.27;6.60;;;9.20;99.90;;;;;;5026984;28;20529;-84
2020/12/15 07:33:39;;;;;;;6.57;5.40;;;9.20;99.90;;;;;;5021770;28;20445;-84
2020/12/15 07:36:16;;;;;;;8.40;6.40;;;9.20;99.90;;;;;;5025106;28;20475;-83
2020/12/15 07:38:45;;;;;;;7.37;6.60;;;9.10;99.90;;;;;;5014385;28;20551;-83
2020/12/15 07:41:16;;;;;;;8.67;7.13;;;9.10;99.90;;;;;;5030530;28;20548;-83
2020/12/15 07:43:52;;;;;;;7.63;6.13;;;9.10;99.90;;;;;;5033873;28;20850;-83
2020/12/15 07:46:19;;;;;;;7.87;6.73;;;9.10;99.90;;;;;;5034260;28;20579;-83
2020/12/15 07:48:46;;;;;;;7.33;6.57;;;9.10;99.90;;;;;;5033048;28;20619;-83
2020/12/15 07:51:13;;;;;;;8.23;7.20;;;9.10;99.90;;;;;;5034088;28;20577;-84
2020/12/15 07:53:49;;;;;;;6.93;6.23;;;9.10;99.90;;;;;;5033284;28;20928;-83
2020/12/15 07:56:17;;;;;;;9.17;7.07;;;9.10;99.90;;;;;;5032730;28;20650;-83
2020/12/15 07:58:48;;;;;;;8.90;6.80;;;9.10;99.90;;;;;;5034206;28;20488;-82
2020/12/15 08:01:22;;;;;;;7.97;6.80;;;9.10;99.90;;;;;;5033129;28;20544;-82
2020/12/15 08:04:02;;;;;;;7.00;5.87;;;9.10;99.90;;;;;;5036326;28;20457;-84
2020/12/15 08:06:30;;;;;;;8.33;6.00;;;9.20;99.90;;;;;;5034294;28;20472;-83
2020/12/15 08:08:58;;;;;;;12.47;8.13;;;9.20;99.90;;;;;;5033428;28;20465;-84
2020/12/15 08:11:25;;;;;;;10.30;7.37;;;9.20;99.90;;;;;;5032130;28;20528;-85
2020/12/15 08:13:52;;;;;;;6.80;5.80;;;9.30;99.90;;;;;;5033420;28;20445;-83
2020/12/15 08:16:19;;;;;;;8.80;7.20;;;9.30;99.90;;;;;;5034034;28;20540;-85
2020/12/15 08:18:47;;;;;;;6.53;5.90;;;9.30;99.90;;;;;;5033845;28;20831;-84
2020/12/15 08:21:16;;;;;;;7.57;6.77;;;9.30;99.90;;;;;;5033851;28;20452;-83
2020/12/15 08:23:52;;;;;;;7.03;6.33;;;9.30;99.90;;;;;;5033604;28;20449;-83
2020/12/15 08:26:34;;;;;;;7.67;6.13;;;9.40;99.90;;;;;;5026220;28;20535;-89
2020/12/15 08:29:04;;;;;;;7.40;5.23;;;9.40;99.90;;;;;;5029050;28;20448;-83
2020/12/15 08:31:30;;;;;;;8.00;7.20;;;9.40;99.90;;;;;;5032735;28;20462;-84
2020/12/15 08:33:57;;;;;;;7.90;6.57;;;9.40;99.90;;;;;;5034682;28;20800;-83
2020/12/15 08:36:25;;;;;;;7.13;5.33;;;9.40;99.90;;;;;;5033484;28;20453;-85
2020/12/15 08:38:51;;;;;;;8.23;5.43;;;9.40;99.90;;;;;;5023424;28;20485;-84
2020/12/15 08:41:20;;;;;;;7.27;6.10;;;9.40;99.90;;;;;;5025664;28;20464;-84
2020/12/15 08:43:56;;;;;;;6.67;5.50;;;9.40;99.90;;;;;;5034512;28;20463;-84
2020/12/15 08:46:23;;;;;;;5.90;5.20;;;9.40;99.90;;;;;;5034375;28;20437;-90
2020/12/15 08:48:50;;;;;;;5.97;5.37;;;9.40;99.90;;;;;;5034413;28;20445;-83
2020/12/15 08:51:19;;;;;;;6.13;5.30;;;9.40;99.90;;;;;;5034789;28;20451;-84
2020/12/15 08:53:47;;;;;;;5.30;4.73;;;9.40;99.90;;;;;;5035763;28;20448;-83
2020/12/15 08:56:16;;;;;;;5.47;4.83;;;9.40;99.90;;;;;;5037751;28;20470;-83
2020/12/15 08:58:43;;;;;;;8.20;5.20;;;9.50;99.90;;;;;;5053969;28;20766;-85
2020/12/15 09:01:11;;;;;;;9.40;6.87;;;9.60;99.90;;;;;;5047921;28;20467;-83
2020/12/15 09:03:45;;;;;;;4.60;4.20;;;9.60;99.90;;;;;;5036628;28;20445;-85
2020/12/15 09:06:11;;;;;;;5.03;4.50;;;9.70;99.90;;;;;;5036755;28;20936;-86
2020/12/15 09:08:47;;;;;;;5.70;4.00;;;9.70;99.90;;;;;;5022357;28;20544;-84
2020/12/15 09:11:15;;;;;;;5.97;4.27;;;9.70;99.90;;;;;;5017169;28;20441;-84
2020/12/15 09:13:52;;;;;;;4.37;3.97;;;9.70;99.90;;;;;;5024542;28;20445;-83
2020/12/15 09:16:25;;;;;;;4.80;3.87;;;9.70;99.90;;;;;;5026304;28;20524;-84
2020/12/15 09:18:52;;;;;;;5.70;3.80;;;9.70;99.90;;;;;;5037456;28;20564;-83
2020/12/15 09:21:19;;;;;;;4.27;3.87;;;9.60;99.90;;;;;;5037017;28;20445;-84
2020/12/15 09:23:48;;;;;;;4.37;3.97;;;9.60;99.90;;;;;;5037128;28;20465;-85
2020/12/15 09:26:14;;;;;;;5.90;3.90;;;9.60;99.90;;;;;;5036932;28;20794;-84
2020/12/15 09:28:41;;;;;;;4.30;3.90;;;9.60;99.90;;;;;;5036741;28;20449;-86
2020/12/15 09:31:08;;;;;;;4.17;3.30;;;9.70;99.90;;;;;;5036473;28;20551;-84
2020/12/15 09:33:35;;;;;;;6.90;4.30;;;9.70;99.90;;;;;;5036147;28;20461;-84
2020/12/15 09:36:02;;;;;;;6.07;3.50;;;9.60;99.90;;;;;;5036792;28;20989;-84
2020/12/15 09:38:28;;;;;;;4.37;3.97;;;9.70;99.90;;;;;;5036577;28;20908;-84
2020/12/15 09:40:54;;;;;;;7.80;4.23;;;9.60;99.90;;;;;;5036836;28;20567;-84
2020/12/15 09:43:21;;;;;;;4.50;3.47;;;9.60;99.90;;;;;;5037106;28;20453;-85
2020/12/15 09:45:47;;;;;;;5.30;3.87;;;9.70;99.90;;;;;;5036674;28;20514;-84
2020/12/15 09:48:13;;;;;;;3.83;2.97;;;9.80;99.90;;;;;;5036584;28;20480;-84
2020/12/15 09:50:41;;;;;;;4.73;4.23;;;9.90;99.90;;;;;;5036304;28;20529;-84
2020/12/15 09:53:08;;;;;;;4.20;3.80;;;10.00;99.90;;;;;;5036531;28;20445;-88
2020/12/15 09:55:35;;;;;;;3.93;3.53;;;9.90;99.90;;;;;;5038004;28;20456;-85
2020/12/15 09:58:01;;;;;;;3.50;3.20;;;10.00;99.90;;;;;;5035708;28;20642;-87
2020/12/15 10:00:28;;;;;;;5.20;3.60;;;10.10;99.90;;;;;;5029336;28;20438;-88
2020/12/15 10:02:54;;;;;;;3.83;3.43;;;10.00;99.90;;;;;;5032269;28;20464;-85
2020/12/15 10:05:22;;;;;;;4.20;3.80;;;10.00;99.90;;;;;;5030595;28;20536;-85
2020/12/15 10:07:49;;;;;;;4.37;3.53;;;10.00;99.90;;;;;;5035026;28;20552;-85
2020/12/15 10:10:17;;;;;;;4.37;3.70;;;10.10;99.90;;;;;;5019401;28;20454;-85
2020/12/15 10:12:43;;;;;;;5.10;3.07;;;10.10;99.90;;;;;;5022462;28;20983;-85
2020/12/15 10:15:10;;;;;;;8.17;4.30;;;10.10;99.90;;;;;;5036596;28;20555;-85
2020/12/15 10:17:36;;;;;;;7.83;4.57;;;10.10;99.90;;;;;;5035395;28;20511;-85
2020/12/15 10:20:03;;;;;;;4.20;3.70;;;10.10;99.90;;;;;;5020612;28;20552;-85
2020/12/15 10:22:30;;;;;;;6.13;4.43;;;10.20;99.90;;;;;;5016105;28;20532;-85
2020/12/15 10:24:57;;;;;;;4.40;3.83;;;10.20;99.90;;;;;;5035862;28;20457;-86
2020/12/15 10:27:24;;;;;;;4.33;3.90;;;10.10;99.90;;;;;;5018596;28;20478;-85
2020/12/15 10:29:50;;;;;;;4.50;4.10;;;10.10;99.90;;;;;;5026937;28;20854;-85
2020/12/15 10:32:16;;;;;;;4.20;3.70;;;10.10;99.90;;;;;;5032347;28;20481;-86
2020/12/15 10:34:43;;;;;;;4.80;3.93;;;10.00;99.90;;;;;;5023573;28;20782;-87
2020/12/15 10:37:09;;;;;;;6.53;4.10;;;10.00;99.90;;;;;;5015768;28;20540;-84
2020/12/15 10:39:36;;;;;;;5.30;3.63;;;10.00;99.90;;;;;;5028337;28;20512;-84
2020/12/15 10:42:03;;;;;;;5.27;3.60;;;10.10;99.90;;;;;;5028460;28;20488;-84
2020/12/15 10:44:30;;;;;;;4.50;3.73;;;10.10;99.90;;;;;;5033974;28;20472;-85
2020/12/15 10:47:01;;;;;;;5.70;4.20;;;10.20;99.90;;;;;;5035336;28;20983;-85
2020/12/15 10:49:30;;;;;;;5.90;3.87;;;10.20;99.90;;;;;;5031203;28;20488;-86
2020/12/15 10:51:56;;;;;;;5.03;3.83;;;10.30;99.90;;;;;;5029075;28;20469;-85
2020/12/15 10:54:22;;;;;;;6.13;4.80;;;10.30;99.90;;;;;;5029592;28;22284;-86
2020/12/15 10:56:49;;;;;;;5.97;4.90;;;10.30;99.90;;;;;;5033145;28;20461;-86
2020/12/15 10:59:16;;;;;;;4.33;3.80;;;10.30;99.90;;;;;;5033054;28;20931;-86
2020/12/15 11:01:42;;;;;;;4.33;3.90;;;10.40;99.90;;;;;;5031912;28;20803;-85
2020/12/15 11:04:09;;;;;;;4.20;3.70;;;10.50;99.90;;;;;;5028087;28;20477;-85
2020/12/15 11:06:36;;;;;;;4.17;3.30;;;10.50;99.90;;;;;;5020295;28;20484;-85
2020/12/15 11:09:04;;;;;;;3.67;3.27;;;10.50;99.90;;;;;;5023711;28;20466;-86
2020/12/15 11:11:30;;;;;;;4.23;2.83;;;10.50;99.90;;;;;;5021385;28;20533;-87
2020/12/15 11:14:01;;;;;;;4.10;3.70;;;10.60;99.90;;;;;;5021219;28;20519;-84
2020/12/15 11:16:31;;;;;;;5.50;4.67;;;10.40;99.90;;;;;;5028037;28;20555;-86
2020/12/15 11:18:57;;;;;;;7.60;6.73;;;10.40;99.90;;;;;;5028998;28;20572;-86
2020/12/15 11:21:24;;;;;;;5.47;4.20;;;10.50;99.90;;;;;;5026555;28;20556;-87
2020/12/15 11:23:50;;;;;;;4.60;4.13;;;10.40;99.90;;;;;;5034730;28;20982;-85
2020/12/15 11:26:17;;;;;;;5.53;4.43;;;10.50;99.90;;;;;;5024569;28;20480;-86
2020/12/15 11:28:44;;;;;;;5.73;4.10;;;10.60;99.90;;;;;;5034511;28;20535;-85
2020/12/15 11:31:11;;;;;;;5.40;3.77;;;10.70;99.90;;;;;;5034120;28;20786;-86
2020/12/15 11:33:39;;;;;;;6.30;3.60;;;10.80;99.90;;;;;;5032908;28;20758;-86
2020/12/15 11:36:06;;;;;;;4.83;4.07;;;10.90;99.90;;;;;;5033486;28;20453;-88
2020/12/15 11:38:32;;;;;;;7.73;3.60;;;11.00;99.90;;;;;;5031622;28;21019;-86
2020/12/15 11:40:58;;;;;;;4.57;4.00;;;10.80;99.90;;;;;;5014437;28;20450;-86
2020/12/15 11:43:25;;;;;;;4.30;3.80;;;10.90;99.90;;;;;;5027733;28;20548;-85
2020/12/15 11:45:51;;;;;;;5.07;3.67;;;10.90;99.90;;;;;;5030194;28;20453;-85
2020/12/15 11:48:17;;;;;;;5.70;4.57;;;10.90;99.90;;;;;;5031770;28;20518;-86
2020/12/15 11:50:45;;;;;;;5.30;4.00;;;10.90;99.90;;;;;;5030952;28;20493;-84
2020/12/15 11:53:12;;;;;;;5.70;4.67;;;10.90;99.90;;;;;;5033694;28;20480;-85
2020/12/15 11:55:38;;;;;;;5.90;4.73;;;10.80;99.90;;;;;;5019737;28;20541;-88
2020/12/15 11:58:04;;;;;;;6.40;3.90;;;10.80;99.90;;;;;;5033159;28;20579;-85
2020/12/15 12:00:33;;;;;;;4.60;4.10;;;10.60;99.90;;;;;;5029436;28;20449;-92
2020/12/15 12:03:00;;;;;;;6.23;4.30;;;10.70;99.90;;;;;;5030900;28;20528;-85
2020/12/15 12:05:27;;;;;;;6.60;4.67;;;10.60;99.90;;;;;;5030651;28;20929;-85
2020/12/15 12:07:54;;;;;;;5.50;4.17;;;10.60;99.90;;;;;;5031359;28;20461;-85
2020/12/15 12:10:21;;;;;;;5.53;4.63;;;10.50;99.90;;;;;;5036123;28;20480;-85
2020/12/15 12:12:47;;;;;;;6.40;4.40;;;10.50;99.90;;;;;;5022624;28;20503;-86
2020/12/15 12:15:14;;;;;;;7.47;4.67;;;10.50;99.90;;;;;;5025448;28;21247;-85
2020/12/15 12:17:40;;;;;;;4.40;4.00;;;10.60;99.90;;;;;;5023846;28;20449;-90
2020/12/15 12:20:07;;;;;;;5.20;4.20;;;10.50;99.90;;;;;;5025144;28;20480;-87
2020/12/15 12:22:33;;;;;;;4.80;3.90;;;10.40;99.90;;;;;;5025753;28;20464;-85
2020/12/15 12:25:00;;;;;;;6.40;4.67;;;10.40;99.90;;;;;;5025478;28;20575;-82
2020/12/15 12:27:26;;;;;;;6.73;4.60;;;10.30;99.90;;;;;;5026836;28;20460;-81
2020/12/15 12:29:53;;;;;;;6.80;4.77;;;10.20;99.90;;;;;;5016224;28;20576;-82
2020/12/15 12:32:19;;;;;;;5.80;4.53;;;10.20;99.90;;;;;;5035115;28;20559;-84
2020/12/15 12:34:46;;;;;;;6.13;4.77;;;10.30;99.90;;;;;;5033127;28;20453;-85
2020/12/15 12:37:12;;;;;;;8.17;5.30;;;10.40;99.90;;;;;;5036670;28;20478;-85
2020/12/15 12:39:40;;;;;;;5.70;4.10;;;10.40;99.90;;;;;;5018289;28;20564;-85
2020/12/15 12:42:07;;;;;;;7.53;4.97;;;10.40;99.90;;;;;;5026772;28;20486;-86
2020/12/15 12:44:33;;;;;;;8.67;5.90;;;10.40;99.90;;;;;;5035206;28;20448;-88
2020/12/15 12:47:00;;;;;;;5.80;4.23;;;10.30;99.90;;;;;;5035234;28;20449;-86
2020/12/15 12:49:29;;;;;;;8.70;5.70;;;10.20;99.90;;;;;;5019005;28;20556;-85
2020/12/15 12:51:57;;;;;;;7.20;4.90;;;10.20;99.90;;;;;;5039635;28;20610;-84
2020/12/15 12:54:24;;;;;;;5.23;4.40;;;10.20;99.90;;;;;;5035627;28;20457;-84
2020/12/15 12:56:50;;;;;;;6.90;4.90;;;10.20;99.90;;;;;;5036047;28;20484;-86
2020/12/15 12:59:18;;;;;;;7.07;5.60;;;10.20;99.90;;;;;;5037568;28;20484;-85